sensor_id;sensor_type;location;lat;lon;timestamp;P1;durP1;ratioP1;P2;durP2;ratioP2
2934;SDS011;2462;51.456;7.248;2023-04-03T00:01:11;5.80;;;5.20;;
2934;SDS011;2462;51.456;7.248;2023-04-03T00:03:37;5.03;;;4.53;;
2934;SDS011;2462;51.456;7.248;2023-04-03T00:06:03;5.30;;;4.63;;
2934;SDS011;2462;51.456;7.248;2023-04-03T00:08:31;5.40;;;4.40;;
2934;SDS011;2462;51.456;7.248;2023-04-03T00:10:57;5.90;;;4.50;;
2934;SDS011;2462;51.456;7.248;2023-04-03T00:13:23;7.30;;;5.20;;
2934;SDS011;2462;51.456;7.248;2023-04-03T00:15:49;5.30;;;4.37;;
2934;SDS011;2462;51.456;7.248;2023-04-03T00:18:15;5.73;;;4.87;;
2934;SDS011;2462;51.456;7.248;2023-04-03T00:20:41;6.27;;;4.60;;
2934;SDS011;2462;51.456;7.248;2023-04-03T00:23:06;5.63;;;4.97;;
2934;SDS011;2462;51.456;7.248;2023-04-03T00:25:32;4.70;;;4.20;;
2934;SDS011;2462;51.456;7.248;2023-04-03T00:27:58;6.23;;;4.57;;
2934;SDS011;2462;51.456;7.248;2023-04-03T00:30:23;6.10;;;4.60;;
2934;SDS011;2462;51.456;7.248;2023-04-03T00:32:50;5.83;;;4.57;;
2934;SDS011;2462;51.456;7.248;2023-04-03T00:35:17;4.90;;;4.40;;
2934;SDS011;2462;51.456;7.248;2023-04-03T00:37:43;5.00;;;4.33;;
2934;SDS011;2462;51.456;7.248;2023-04-03T00:40:10;5.73;;;5.13;;
2934;SDS011;2462;51.456;7.248;2023-04-03T00:42:37;6.30;;;5.70;;
2934;SDS011;2462;51.456;7.248;2023-04-03T00:47:29;5.70;;;5.20;;
2934;SDS011;2462;51.456;7.248;2023-04-03T00:49:55;7.17;;;5.07;;
2934;SDS011;2462;51.456;7.248;2023-04-03T00:52:23;6.30;;;4.73;;
2934;SDS011;2462;51.456;7.248;2023-04-03T00:54:54;8.10;;;5.83;;
2934;SDS011;2462;51.456;7.248;2023-04-03T00:57:26;6.93;;;6.20;;
2934;SDS011;2462;51.456;7.248;2023-04-03T00:59:56;8.10;;;4.60;;
2934;SDS011;2462;51.456;7.248;2023-04-03T01:02:26;6.37;;;5.73;;
2934;SDS011;2462;51.456;7.248;2023-04-03T01:04:52;6.90;;;6.20;;
2934;SDS011;2462;51.456;7.248;2023-04-03T01:09:46;6.47;;;4.97;;
2934;SDS011;2462;51.456;7.248;2023-04-03T01:12:20;5.63;;;4.90;;
2934;SDS011;2462;51.456;7.248;2023-04-03T01:15:09;7.20;;;5.40;;
2934;SDS011;2462;51.456;7.248;2023-04-03T01:17:39;5.40;;;4.87;;
2934;SDS011;2462;51.456;7.248;2023-04-03T01:20:34;6.63;;;5.73;;
2934;SDS011;2462;51.456;7.248;2023-04-03T01:26:06;6.03;;;5.43;;
2934;SDS011;2462;51.456;7.248;2023-04-03T01:28:33;6.70;;;5.23;;
2934;SDS011;2462;51.456;7.248;2023-04-03T01:33:41;7.53;;;5.80;;
2934;SDS011;2462;51.456;7.248;2023-04-03T01:36:08;6.03;;;5.37;;
2934;SDS011;2462;51.456;7.248;2023-04-03T01:38:34;5.63;;;5.07;;
2934;SDS011;2462;51.456;7.248;2023-04-03T01:41:00;5.50;;;4.80;;
2934;SDS011;2462;51.456;7.248;2023-04-03T01:43:26;5.80;;;4.90;;
2934;SDS011;2462;51.456;7.248;2023-04-03T01:45:51;6.30;;;5.70;;
2934;SDS011;2462;51.456;7.248;2023-04-03T01:48:19;6.23;;;5.53;;
2934;SDS011;2462;51.456;7.248;2023-04-03T01:50:45;6.23;;;5.13;;
2934;SDS011;2462;51.456;7.248;2023-04-03T01:53:11;5.80;;;4.93;;
2934;SDS011;2462;51.456;7.248;2023-04-03T01:55:38;5.60;;;4.73;;
2934;SDS011;2462;51.456;7.248;2023-04-03T01:58:03;5.60;;;5.10;;
2934;SDS011;2462;51.456;7.248;2023-04-03T02:00:29;6.00;;;5.40;;
2934;SDS011;2462;51.456;7.248;2023-04-03T02:02:55;5.90;;;4.90;;
2934;SDS011;2462;51.456;7.248;2023-04-03T02:05:21;5.20;;;4.70;;
2934;SDS011;2462;51.456;7.248;2023-04-03T02:07:47;5.70;;;5.17;;
2934;SDS011;2462;51.456;7.248;2023-04-03T02:10:12;5.83;;;5.30;;
2934;SDS011;2462;51.456;7.248;2023-04-03T02:12:38;6.20;;;5.53;;
2934;SDS011;2462;51.456;7.248;2023-04-03T02:15:04;6.90;;;4.80;;
2934;SDS011;2462;51.456;7.248;2023-04-03T02:17:30;7.97;;;5.17;;
2934;SDS011;2462;51.456;7.248;2023-04-03T02:19:55;5.33;;;4.83;;
2934;SDS011;2462;51.456;7.248;2023-04-03T02:22:21;6.93;;;5.10;;
2934;SDS011;2462;51.456;7.248;2023-04-03T02:24:46;6.97;;;4.70;;
2934;SDS011;2462;51.456;7.248;2023-04-03T02:27:12;5.17;;;4.70;;
2934;SDS011;2462;51.456;7.248;2023-04-03T02:29:37;6.20;;;5.60;;
2934;SDS011;2462;51.456;7.248;2023-04-03T02:32:03;5.53;;;5.03;;
2934;SDS011;2462;51.456;7.248;2023-04-03T02:34:29;6.27;;;4.53;;
2934;SDS011;2462;51.456;7.248;2023-04-03T02:36:54;6.37;;;5.13;;
2934;SDS011;2462;51.456;7.248;2023-04-03T02:39:20;4.70;;;4.30;;
2934;SDS011;2462;51.456;7.248;2023-04-03T02:41:46;5.93;;;4.80;;
2934;SDS011;2462;51.456;7.248;2023-04-03T02:44:11;5.63;;;5.13;;
2934;SDS011;2462;51.456;7.248;2023-04-03T02:46:37;5.70;;;5.20;;
2934;SDS011;2462;51.456;7.248;2023-04-03T02:49:03;5.40;;;4.90;;
2934;SDS011;2462;51.456;7.248;2023-04-03T02:51:29;6.10;;;5.37;;
2934;SDS011;2462;51.456;7.248;2023-04-03T02:53:55;5.43;;;4.93;;
2934;SDS011;2462;51.456;7.248;2023-04-03T02:56:20;5.33;;;4.83;;
2934;SDS011;2462;51.456;7.248;2023-04-03T02:58:46;4.70;;;4.30;;
2934;SDS011;2462;51.456;7.248;2023-04-03T03:01:13;5.03;;;4.53;;
2934;SDS011;2462;51.456;7.248;2023-04-03T03:03:39;6.70;;;5.17;;
2934;SDS011;2462;51.456;7.248;2023-04-03T03:06:06;5.30;;;4.57;;
2934;SDS011;2462;51.456;7.248;2023-04-03T03:08:33;6.07;;;4.53;;
2934;SDS011;2462;51.456;7.248;2023-04-03T03:10:59;5.53;;;4.93;;
2934;SDS011;2462;51.456;7.248;2023-04-03T03:13:25;6.70;;;5.27;;
2934;SDS011;2462;51.456;7.248;2023-04-03T03:15:51;4.83;;;4.40;;
2934;SDS011;2462;51.456;7.248;2023-04-03T03:18:17;5.00;;;4.20;;
2934;SDS011;2462;51.456;7.248;2023-04-03T03:20:42;5.57;;;4.70;;
2934;SDS011;2462;51.456;7.248;2023-04-03T03:23:08;5.60;;;4.10;;
2934;SDS011;2462;51.456;7.248;2023-04-03T03:25:37;5.13;;;4.40;;
2934;SDS011;2462;51.456;7.248;2023-04-03T03:28:04;5.80;;;5.10;;
2934;SDS011;2462;51.456;7.248;2023-04-03T03:30:30;5.17;;;4.67;;
2934;SDS011;2462;51.456;7.248;2023-04-03T03:32:55;4.90;;;4.30;;
2934;SDS011;2462;51.456;7.248;2023-04-03T03:35:21;4.40;;;3.73;;
2934;SDS011;2462;51.456;7.248;2023-04-03T03:37:46;4.40;;;4.00;;
2934;SDS011;2462;51.456;7.248;2023-04-03T03:40:12;6.73;;;4.37;;
2934;SDS011;2462;51.456;7.248;2023-04-03T03:42:38;6.50;;;4.70;;
2934;SDS011;2462;51.456;7.248;2023-04-03T03:45:04;5.20;;;3.70;;
2934;SDS011;2462;51.456;7.248;2023-04-03T03:47:30;6.50;;;4.30;;
2934;SDS011;2462;51.456;7.248;2023-04-03T03:49:56;4.60;;;4.00;;
2934;SDS011;2462;51.456;7.248;2023-04-03T03:52:21;4.60;;;3.73;;
2934;SDS011;2462;51.456;7.248;2023-04-03T03:54:47;4.27;;;3.87;;
2934;SDS011;2462;51.456;7.248;2023-04-03T03:57:12;3.80;;;3.40;;
2934;SDS011;2462;51.456;7.248;2023-04-03T03:59:38;4.10;;;3.70;;
2934;SDS011;2462;51.456;7.248;2023-04-03T04:02:05;4.37;;;3.80;;
2934;SDS011;2462;51.456;7.248;2023-04-03T04:04:30;5.00;;;4.30;;
2934;SDS011;2462;51.456;7.248;2023-04-03T04:06:56;4.47;;;3.67;;
2934;SDS011;2462;51.456;7.248;2023-04-03T04:09:21;4.20;;;3.80;;
2934;SDS011;2462;51.456;7.248;2023-04-03T04:11:47;5.87;;;3.97;;
2934;SDS011;2462;51.456;7.248;2023-04-03T04:14:12;5.30;;;3.87;;
2934;SDS011;2462;51.456;7.248;2023-04-03T04:16:38;3.87;;;3.57;;
2934;SDS011;2462;51.456;7.248;2023-04-03T04:19:04;4.67;;;4.10;;
2934;SDS011;2462;51.456;7.248;2023-04-03T04:21:29;4.03;;;3.53;;
2934;SDS011;2462;51.456;7.248;2023-04-03T04:23:55;4.37;;;3.70;;
2934;SDS011;2462;51.456;7.248;2023-04-03T04:26:20;4.30;;;3.03;;
2934;SDS011;2462;51.456;7.248;2023-04-03T04:28:46;3.87;;;3.47;;
2934;SDS011;2462;51.456;7.248;2023-04-03T04:31:11;4.77;;;3.30;;
2934;SDS011;2462;51.456;7.248;2023-04-03T04:33:37;4.33;;;3.93;;
2934;SDS011;2462;51.456;7.248;2023-04-03T04:36:02;3.67;;;3.23;;
2934;SDS011;2462;51.456;7.248;2023-04-03T04:38:28;4.30;;;3.40;;
2934;SDS011;2462;51.456;7.248;2023-04-03T04:40:54;5.10;;;4.60;;
2934;SDS011;2462;51.456;7.248;2023-04-03T04:43:20;3.70;;;3.40;;
2934;SDS011;2462;51.456;7.248;2023-04-03T04:45:45;3.10;;;2.80;;
2934;SDS011;2462;51.456;7.248;2023-04-03T04:48:11;3.73;;;3.40;;
2934;SDS011;2462;51.456;7.248;2023-04-03T04:50:37;4.57;;;2.90;;
2934;SDS011;2462;51.456;7.248;2023-04-03T04:53:02;3.93;;;3.63;;
2934;SDS011;2462;51.456;7.248;2023-04-03T04:55:29;3.20;;;2.90;;
2934;SDS011;2462;51.456;7.248;2023-04-03T04:57:54;3.77;;;3.10;;
2934;SDS011;2462;51.456;7.248;2023-04-03T05:00:20;4.83;;;3.90;;
2934;SDS011;2462;51.456;7.248;2023-04-03T05:02:46;3.50;;;2.90;;
2934;SDS011;2462;51.456;7.248;2023-04-03T05:05:11;3.23;;;2.83;;
2934;SDS011;2462;51.456;7.248;2023-04-03T05:07:37;3.47;;;3.10;;
2934;SDS011;2462;51.456;7.248;2023-04-03T05:10:03;3.70;;;3.13;;
2934;SDS011;2462;51.456;7.248;2023-04-03T05:12:29;3.30;;;3.00;;
2934;SDS011;2462;51.456;7.248;2023-04-03T05:14:54;4.77;;;3.07;;
2934;SDS011;2462;51.456;7.248;2023-04-03T05:17:20;4.30;;;3.20;;
2934;SDS011;2462;51.456;7.248;2023-04-03T05:19:45;4.43;;;3.23;;
2934;SDS011;2462;51.456;7.248;2023-04-03T05:22:11;4.47;;;3.07;;
2934;SDS011;2462;51.456;7.248;2023-04-03T05:24:37;3.90;;;3.03;;
2934;SDS011;2462;51.456;7.248;2023-04-03T05:27:02;3.80;;;3.00;;
2934;SDS011;2462;51.456;7.248;2023-04-03T05:29:28;4.00;;;3.00;;
2934;SDS011;2462;51.456;7.248;2023-04-03T05:31:54;3.30;;;2.87;;
2934;SDS011;2462;51.456;7.248;2023-04-03T05:34:20;3.43;;;3.10;;
2934;SDS011;2462;51.456;7.248;2023-04-03T05:36:45;6.20;;;3.17;;
2934;SDS011;2462;51.456;7.248;2023-04-03T05:39:11;4.60;;;3.40;;
2934;SDS011;2462;51.456;7.248;2023-04-03T05:41:36;3.57;;;3.27;;
2934;SDS011;2462;51.456;7.248;2023-04-03T05:44:02;4.63;;;3.30;;
2934;SDS011;2462;51.456;7.248;2023-04-03T05:46:27;3.50;;;2.60;;
2934;SDS011;2462;51.456;7.248;2023-04-03T05:48:53;7.40;;;3.03;;
2934;SDS011;2462;51.456;7.248;2023-04-03T05:51:22;3.03;;;2.63;;
2934;SDS011;2462;51.456;7.248;2023-04-03T05:54:03;3.30;;;2.83;;
2934;SDS011;2462;51.456;7.248;2023-04-03T05:56:35;4.40;;;2.90;;
2934;SDS011;2462;51.456;7.248;2023-04-03T05:59:00;3.80;;;2.63;;
2934;SDS011;2462;51.456;7.248;2023-04-03T06:01:26;3.43;;;2.87;;
2934;SDS011;2462;51.456;7.248;2023-04-03T06:03:51;3.80;;;2.67;;
2934;SDS011;2462;51.456;7.248;2023-04-03T06:06:17;3.10;;;2.70;;
2934;SDS011;2462;51.456;7.248;2023-04-03T06:08:43;3.73;;;3.23;;
2934;SDS011;2462;51.456;7.248;2023-04-03T06:11:08;3.97;;;2.57;;
2934;SDS011;2462;51.456;7.248;2023-04-03T06:13:34;2.90;;;2.60;;
2934;SDS011;2462;51.456;7.248;2023-04-03T06:16:00;4.30;;;3.10;;
2934;SDS011;2462;51.456;7.248;2023-04-03T06:18:25;3.63;;;2.43;;
2934;SDS011;2462;51.456;7.248;2023-04-03T06:20:51;3.23;;;2.90;;
2934;SDS011;2462;51.456;7.248;2023-04-03T06:23:17;4.10;;;2.87;;
2934;SDS011;2462;51.456;7.248;2023-04-03T06:25:42;3.87;;;2.80;;
2934;SDS011;2462;51.456;7.248;2023-04-03T06:28:08;3.50;;;2.47;;
2934;SDS011;2462;51.456;7.248;2023-04-03T06:30:35;4.60;;;2.47;;
2934;SDS011;2462;51.456;7.248;2023-04-03T06:33:01;3.37;;;2.73;;
2934;SDS011;2462;51.456;7.248;2023-04-03T06:35:27;3.33;;;2.70;;
2934;SDS011;2462;51.456;7.248;2023-04-03T06:37:55;3.03;;;2.60;;
2934;SDS011;2462;51.456;7.248;2023-04-03T06:40:22;3.03;;;2.53;;
2934;SDS011;2462;51.456;7.248;2023-04-03T06:42:51;3.10;;;2.77;;
2934;SDS011;2462;51.456;7.248;2023-04-03T06:45:16;4.90;;;2.90;;
2934;SDS011;2462;51.456;7.248;2023-04-03T06:47:42;4.40;;;2.60;;
2934;SDS011;2462;51.456;7.248;2023-04-03T06:50:09;2.53;;;2.30;;
2934;SDS011;2462;51.456;7.248;2023-04-03T06:52:36;5.83;;;3.00;;
2934;SDS011;2462;51.456;7.248;2023-04-03T06:55:02;3.67;;;3.00;;
2934;SDS011;2462;51.456;7.248;2023-04-03T06:57:28;6.00;;;2.75;;
2934;SDS011;2462;51.456;7.248;2023-04-03T06:59:54;2.80;;;2.27;;
2934;SDS011;2462;51.456;7.248;2023-04-03T07:02:20;4.47;;;2.63;;
2934;SDS011;2462;51.456;7.248;2023-04-03T07:04:46;3.70;;;2.17;;
2934;SDS011;2462;51.456;7.248;2023-04-03T07:07:12;2.90;;;2.30;;
2934;SDS011;2462;51.456;7.248;2023-04-03T07:09:37;6.50;;;2.20;;
2934;SDS011;2462;51.456;7.248;2023-04-03T07:12:03;2.30;;;2.10;;
2934;SDS011;2462;51.456;7.248;2023-04-03T07:14:28;2.13;;;2.03;;
2934;SDS011;2462;51.456;7.248;2023-04-03T07:16:54;3.37;;;2.50;;
2934;SDS011;2462;51.456;7.248;2023-04-03T07:19:20;5.00;;;2.53;;
2934;SDS011;2462;51.456;7.248;2023-04-03T07:21:46;2.70;;;2.50;;
2934;SDS011;2462;51.456;7.248;2023-04-03T07:24:12;5.83;;;2.80;;
2934;SDS011;2462;51.456;7.248;2023-04-03T07:26:37;3.27;;;2.70;;
2934;SDS011;2462;51.456;7.248;2023-04-03T07:29:03;4.70;;;2.93;;
2934;SDS011;2462;51.456;7.248;2023-04-03T07:31:29;4.17;;;2.67;;
2934;SDS011;2462;51.456;7.248;2023-04-03T07:33:54;4.53;;;2.70;;
2934;SDS011;2462;51.456;7.248;2023-04-03T07:36:20;3.50;;;2.13;;
2934;SDS011;2462;51.456;7.248;2023-04-03T07:38:47;2.40;;;2.20;;
2934;SDS011;2462;51.456;7.248;2023-04-03T07:41:17;3.80;;;2.60;;
2934;SDS011;2462;51.456;7.248;2023-04-03T07:43:44;2.47;;;1.70;;
2934;SDS011;2462;51.456;7.248;2023-04-03T07:46:11;5.73;;;2.50;;
2934;SDS011;2462;51.456;7.248;2023-04-03T07:48:37;3.33;;;2.27;;
2934;SDS011;2462;51.456;7.248;2023-04-03T07:51:02;3.80;;;2.13;;
2934;SDS011;2462;51.456;7.248;2023-04-03T07:53:29;3.73;;;2.40;;
2934;SDS011;2462;51.456;7.248;2023-04-03T07:55:56;3.15;;;2.00;;
2934;SDS011;2462;51.456;7.248;2023-04-03T07:58:22;3.67;;;2.40;;
2934;SDS011;2462;51.456;7.248;2023-04-03T08:00:48;4.63;;;3.33;;
2934;SDS011;2462;51.456;7.248;2023-04-03T08:03:13;3.73;;;2.37;;
2934;SDS011;2462;51.456;7.248;2023-04-03T08:05:41;3.67;;;2.37;;
2934;SDS011;2462;51.456;7.248;2023-04-03T08:08:08;3.30;;;2.40;;
2934;SDS011;2462;51.456;7.248;2023-04-03T08:10:35;5.30;;;3.33;;
2934;SDS011;2462;51.456;7.248;2023-04-03T08:13:00;2.33;;;2.07;;
2934;SDS011;2462;51.456;7.248;2023-04-03T08:15:26;6.47;;;5.10;;
2934;SDS011;2462;51.456;7.248;2023-04-03T08:17:52;2.20;;;1.90;;
2934;SDS011;2462;51.456;7.248;2023-04-03T08:20:19;3.60;;;2.40;;
2934;SDS011;2462;51.456;7.248;2023-04-03T08:22:45;3.77;;;2.50;;
2934;SDS011;2462;51.456;7.248;2023-04-03T08:25:11;11.18;;;3.75;;
2934;SDS011;2462;51.456;7.248;2023-04-03T08:27:36;4.70;;;2.70;;
2934;SDS011;2462;51.456;7.248;2023-04-03T08:30:02;4.57;;;2.83;;
2934;SDS011;2462;51.456;7.248;2023-04-03T08:32:29;3.20;;;2.17;;
2934;SDS011;2462;51.456;7.248;2023-04-03T08:34:55;5.63;;;2.70;;
2934;SDS011;2462;51.456;7.248;2023-04-03T08:37:21;3.63;;;2.27;;
2934;SDS011;2462;51.456;7.248;2023-04-03T08:39:47;4.17;;;2.60;;
2934;SDS011;2462;51.456;7.248;2023-04-03T08:45:13;3.20;;;2.43;;
2934;SDS011;2462;51.456;7.248;2023-04-03T08:47:38;5.33;;;2.40;;
2934;SDS011;2462;51.456;7.248;2023-04-03T08:50:12;5.30;;;2.33;;
2934;SDS011;2462;51.456;7.248;2023-04-03T08:52:41;3.10;;;2.40;;
2934;SDS011;2462;51.456;7.248;2023-04-03T08:55:30;5.47;;;2.30;;
2934;SDS011;2462;51.456;7.248;2023-04-03T08:58:01;6.10;;;2.33;;
2934;SDS011;2462;51.456;7.248;2023-04-03T09:00:29;7.20;;;2.33;;
2934;SDS011;2462;51.456;7.248;2023-04-03T09:02:56;3.00;;;1.93;;
2934;SDS011;2462;51.456;7.248;2023-04-03T09:07:54;5.57;;;2.33;;
2934;SDS011;2462;51.456;7.248;2023-04-03T09:10:27;2.73;;;1.93;;
2934;SDS011;2462;51.456;7.248;2023-04-03T09:12:59;3.17;;;2.13;;
2934;SDS011;2462;51.456;7.248;2023-04-03T09:15:27;3.30;;;2.47;;
2934;SDS011;2462;51.456;7.248;2023-04-03T09:20:29;2.50;;;1.70;;
2934;SDS011;2462;51.456;7.248;2023-04-03T09:22:58;3.00;;;2.10;;
2934;SDS011;2462;51.456;7.248;2023-04-03T09:27:51;6.82;;;1.83;;
2934;SDS011;2462;51.456;7.248;2023-04-03T09:30:21;4.50;;;2.03;;
2934;SDS011;2462;51.456;7.248;2023-04-03T09:32:49;7.00;;;1.93;;
2934;SDS011;2462;51.456;7.248;2023-04-03T09:37:44;7.57;;;1.80;;
2934;SDS011;2462;51.456;7.248;2023-04-03T09:42:48;3.83;;;1.93;;
2934;SDS011;2462;51.456;7.248;2023-04-03T09:45:21;2.80;;;1.57;;
2934;SDS011;2462;51.456;7.248;2023-04-03T09:48:15;5.72;;;2.15;;
2934;SDS011;2462;51.456;7.248;2023-04-03T09:55:56;11.67;;;2.87;;
2934;SDS011;2462;51.456;7.248;2023-04-03T09:58:29;11.67;;;2.70;;
2934;SDS011;2462;51.456;7.248;2023-04-03T10:00:57;8.63;;;2.60;;
2934;SDS011;2462;51.456;7.248;2023-04-03T10:03:33;12.47;;;3.27;;
2934;SDS011;2462;51.456;7.248;2023-04-03T10:06:00;13.90;;;4.07;;
2934;SDS011;2462;51.456;7.248;2023-04-03T10:08:29;15.10;;;2.90;;
2934;SDS011;2462;51.456;7.248;2023-04-03T10:11:07;12.30;;;3.07;;
2934;SDS011;2462;51.456;7.248;2023-04-03T10:13:34;25.53;;;3.20;;
2934;SDS011;2462;51.456;7.248;2023-04-03T10:16:07;19.77;;;3.70;;
2934;SDS011;2462;51.456;7.248;2023-04-03T10:24:07;6.70;;;2.60;;
2934;SDS011;2462;51.456;7.248;2023-04-03T10:26:39;20.67;;;2.60;;
2934;SDS011;2462;51.456;7.248;2023-04-03T10:29:10;11.40;;;3.40;;
2934;SDS011;2462;51.456;7.248;2023-04-03T10:46:44;47.80;;;6.23;;
2934;SDS011;2462;51.456;7.248;2023-04-03T10:51:50;84.67;;;27.87;;
2934;SDS011;2462;51.456;7.248;2023-04-03T10:54:23;123.30;;;49.87;;
2934;SDS011;2462;51.456;7.248;2023-04-03T10:56:51;129.43;;;45.10;;
2934;SDS011;2462;51.456;7.248;2023-04-03T10:59:32;87.43;;;33.83;;
2934;SDS011;2462;51.456;7.248;2023-04-03T11:02:04;69.80;;;28.37;;
2934;SDS011;2462;51.456;7.248;2023-04-03T11:04:33;66.53;;;28.30;;
2934;SDS011;2462;51.456;7.248;2023-04-03T11:07:01;65.17;;;23.13;;
2934;SDS011;2462;51.456;7.248;2023-04-03T11:09:29;60.27;;;24.03;;
2934;SDS011;2462;51.456;7.248;2023-04-03T11:12:17;70.13;;;26.03;;
2934;SDS011;2462;51.456;7.248;2023-04-03T11:14:44;64.17;;;23.17;;
2934;SDS011;2462;51.456;7.248;2023-04-03T11:17:15;55.90;;;22.17;;
2934;SDS011;2462;51.456;7.248;2023-04-03T11:22:32;54.80;;;21.60;;
2934;SDS011;2462;51.456;7.248;2023-04-03T11:25:03;48.60;;;19.43;;
2934;SDS011;2462;51.456;7.248;2023-04-03T11:27:33;44.03;;;19.30;;
2934;SDS011;2462;51.456;7.248;2023-04-03T11:30:01;34.63;;;16.17;;
2934;SDS011;2462;51.456;7.248;2023-04-03T11:35:06;38.60;;;17.70;;
2934;SDS011;2462;51.456;7.248;2023-04-03T11:40:02;66.57;;;14.40;;
2934;SDS011;2462;51.456;7.248;2023-04-03T11:47:44;41.03;;;12.27;;
2934;SDS011;2462;51.456;7.248;2023-04-03T11:52:59;39.43;;;10.63;;
2934;SDS011;2462;51.456;7.248;2023-04-03T12:05:52;28.40;;;9.13;;
2934;SDS011;2462;51.456;7.248;2023-04-03T12:13:36;20.23;;;7.33;;
2934;SDS011;2462;51.456;7.248;2023-04-03T12:16:03;39.23;;;8.70;;
2934;SDS011;2462;51.456;7.248;2023-04-03T12:21:05;22.40;;;7.53;;
2934;SDS011;2462;51.456;7.248;2023-04-03T12:23:35;47.17;;;8.97;;
2934;SDS011;2462;51.456;7.248;2023-04-03T12:26:05;25.33;;;6.33;;
2934;SDS011;2462;51.456;7.248;2023-04-03T12:28:35;18.90;;;6.00;;
2934;SDS011;2462;51.456;7.248;2023-04-03T12:31:02;23.90;;;6.23;;
2934;SDS011;2462;51.456;7.248;2023-04-03T12:33:36;21.37;;;6.43;;
2934;SDS011;2462;51.456;7.248;2023-04-03T12:36:10;22.90;;;6.67;;
2934;SDS011;2462;51.456;7.248;2023-04-03T12:46:52;16.07;;;5.40;;
2934;SDS011;2462;51.456;7.248;2023-04-03T12:49:38;11.37;;;4.83;;
2934;SDS011;2462;51.456;7.248;2023-04-03T12:52:05;19.93;;;5.93;;
2934;SDS011;2462;51.456;7.248;2023-04-03T12:54:32;15.97;;;4.97;;
2934;SDS011;2462;51.456;7.248;2023-04-03T12:57:09;10.70;;;4.43;;
2934;SDS011;2462;51.456;7.248;2023-04-03T12:59:35;13.20;;;4.43;;
2934;SDS011;2462;51.456;7.248;2023-04-03T13:02:03;11.60;;;3.57;;
2934;SDS011;2462;51.456;7.248;2023-04-03T13:04:37;11.90;;;3.90;;
2934;SDS011;2462;51.456;7.248;2023-04-03T13:07:04;9.33;;;4.40;;
2934;SDS011;2462;51.456;7.248;2023-04-03T13:09:31;11.20;;;4.13;;
2934;SDS011;2462;51.456;7.248;2023-04-03T13:11:58;8.87;;;3.53;;
2934;SDS011;2462;51.456;7.248;2023-04-03T13:14:25;5.27;;;3.87;;
2934;SDS011;2462;51.456;7.248;2023-04-03T13:19:20;6.10;;;3.50;;
2934;SDS011;2462;51.456;7.248;2023-04-03T13:21:48;9.70;;;3.50;;
2934;SDS011;2462;51.456;7.248;2023-04-03T13:24:16;10.07;;;3.33;;
2934;SDS011;2462;51.456;7.248;2023-04-03T13:26:42;7.23;;;3.40;;
2934;SDS011;2462;51.456;7.248;2023-04-03T13:29:19;9.27;;;3.50;;
2934;SDS011;2462;51.456;7.248;2023-04-03T13:31:46;4.30;;;2.50;;
2934;SDS011;2462;51.456;7.248;2023-04-03T13:34:13;4.70;;;2.70;;
2934;SDS011;2462;51.456;7.248;2023-04-03T13:36:44;5.70;;;2.53;;
2934;SDS011;2462;51.456;7.248;2023-04-03T13:39:33;10.30;;;2.73;;
2934;SDS011;2462;51.456;7.248;2023-04-03T13:42:01;7.67;;;2.70;;
2934;SDS011;2462;51.456;7.248;2023-04-03T13:44:48;4.93;;;2.67;;
2934;SDS011;2462;51.456;7.248;2023-04-03T13:47:21;6.57;;;3.23;;
2934;SDS011;2462;51.456;7.248;2023-04-03T13:50:02;8.97;;;2.83;;
2934;SDS011;2462;51.456;7.248;2023-04-03T13:53:22;6.60;;;2.40;;
2934;SDS011;2462;51.456;7.248;2023-04-03T13:55:28;9.33;;;3.10;;
2934;SDS011;2462;51.456;7.248;2023-04-03T13:58:51;7.67;;;2.90;;
2934;SDS011;2462;51.456;7.248;2023-04-03T14:06:04;4.37;;;2.17;;
2934;SDS011;2462;51.456;7.248;2023-04-03T14:08:32;4.07;;;3.07;;
2934;SDS011;2462;51.456;7.248;2023-04-03T14:10:57;4.77;;;1.80;;
2934;SDS011;2462;51.456;7.248;2023-04-03T14:13:23;2.83;;;1.80;;
2934;SDS011;2462;51.456;7.248;2023-04-03T14:15:49;4.57;;;1.97;;
2934;SDS011;2462;51.456;7.248;2023-04-03T14:18:17;3.30;;;1.90;;
2934;SDS011;2462;51.456;7.248;2023-04-03T14:20:45;4.43;;;1.83;;
2934;SDS011;2462;51.456;7.248;2023-04-03T14:23:11;3.90;;;2.10;;
2934;SDS011;2462;51.456;7.248;2023-04-03T14:25:37;3.30;;;1.87;;
2934;SDS011;2462;51.456;7.248;2023-04-03T14:28:13;3.17;;;1.90;;
2934;SDS011;2462;51.456;7.248;2023-04-03T14:30:44;4.90;;;1.77;;
2934;SDS011;2462;51.456;7.248;2023-04-03T14:33:13;7.90;;;2.30;;
2934;SDS011;2462;51.456;7.248;2023-04-03T14:35:40;6.40;;;1.80;;
2934;SDS011;2462;51.456;7.248;2023-04-03T14:38:28;6.60;;;2.40;;
2934;SDS011;2462;51.456;7.248;2023-04-03T14:40:53;3.57;;;1.63;;
2934;SDS011;2462;51.456;7.248;2023-04-03T14:43:20;5.70;;;2.07;;
2934;SDS011;2462;51.456;7.248;2023-04-03T14:45:46;4.07;;;1.70;;
2934;SDS011;2462;51.456;7.248;2023-04-03T14:48:15;12.73;;;2.70;;
2934;SDS011;2462;51.456;7.248;2023-04-03T14:50:46;5.50;;;1.90;;
2934;SDS011;2462;51.456;7.248;2023-04-03T14:53:13;2.70;;;1.47;;
2934;SDS011;2462;51.456;7.248;2023-04-03T14:55:40;4.50;;;1.60;;
2934;SDS011;2462;51.456;7.248;2023-04-03T14:58:12;5.83;;;2.10;;
2934;SDS011;2462;51.456;7.248;2023-04-03T15:00:44;3.37;;;1.63;;
2934;SDS011;2462;51.456;7.248;2023-04-03T15:03:14;4.70;;;2.00;;
2934;SDS011;2462;51.456;7.248;2023-04-03T15:05:41;7.60;;;2.23;;
2934;SDS011;2462;51.456;7.248;2023-04-03T15:08:13;6.83;;;1.80;;
2934;SDS011;2462;51.456;7.248;2023-04-03T15:10:44;4.90;;;1.30;;
2934;SDS011;2462;51.456;7.248;2023-04-03T15:13:10;1.87;;;1.53;;
2934;SDS011;2462;51.456;7.248;2023-04-03T15:15:37;2.20;;;1.20;;
2934;SDS011;2462;51.456;7.248;2023-04-03T15:18:02;9.55;;;2.08;;
2934;SDS011;2462;51.456;7.248;2023-04-03T15:20:29;13.00;;;2.40;;
2934;SDS011;2462;51.456;7.248;2023-04-03T15:22:55;5.20;;;1.80;;
2934;SDS011;2462;51.456;7.248;2023-04-03T15:25:22;4.80;;;1.90;;
2934;SDS011;2462;51.456;7.248;2023-04-03T15:27:48;4.70;;;1.73;;
2934;SDS011;2462;51.456;7.248;2023-04-03T15:30:16;5.80;;;2.00;;
2934;SDS011;2462;51.456;7.248;2023-04-03T15:32:42;2.83;;;1.70;;
2934;SDS011;2462;51.456;7.248;2023-04-03T15:35:08;6.00;;;1.90;;
2934;SDS011;2462;51.456;7.248;2023-04-03T15:37:34;4.97;;;2.00;;
2934;SDS011;2462;51.456;7.248;2023-04-03T15:40:00;6.50;;;1.77;;
2934;SDS011;2462;51.456;7.248;2023-04-03T15:42:26;3.50;;;1.57;;
2934;SDS011;2462;51.456;7.248;2023-04-03T15:44:51;4.27;;;1.77;;
2934;SDS011;2462;51.456;7.248;2023-04-03T15:47:17;3.40;;;1.50;;
2934;SDS011;2462;51.456;7.248;2023-04-03T15:49:42;4.53;;;1.70;;
2934;SDS011;2462;51.456;7.248;2023-04-03T15:52:08;2.83;;;1.60;;
2934;SDS011;2462;51.456;7.248;2023-04-03T15:54:33;2.70;;;1.50;;
2934;SDS011;2462;51.456;7.248;2023-04-03T15:56:59;4.67;;;1.80;;
2934;SDS011;2462;51.456;7.248;2023-04-03T15:59:25;3.80;;;2.03;;
2934;SDS011;2462;51.456;7.248;2023-04-03T16:01:50;3.97;;;1.97;;
2934;SDS011;2462;51.456;7.248;2023-04-03T16:04:17;3.10;;;1.87;;
2934;SDS011;2462;51.456;7.248;2023-04-03T16:06:43;5.70;;;1.80;;
2934;SDS011;2462;51.456;7.248;2023-04-03T16:09:09;4.30;;;1.53;;
2934;SDS011;2462;51.456;7.248;2023-04-03T16:11:35;2.63;;;1.57;;
2934;SDS011;2462;51.456;7.248;2023-04-03T16:14:04;3.63;;;1.60;;
2934;SDS011;2462;51.456;7.248;2023-04-03T16:16:30;3.80;;;1.70;;
2934;SDS011;2462;51.456;7.248;2023-04-03T16:18:55;3.20;;;1.83;;
2934;SDS011;2462;51.456;7.248;2023-04-03T16:21:21;3.73;;;1.90;;
2934;SDS011;2462;51.456;7.248;2023-04-03T16:23:48;3.00;;;1.77;;
2934;SDS011;2462;51.456;7.248;2023-04-03T16:26:14;3.03;;;1.40;;
2934;SDS011;2462;51.456;7.248;2023-04-03T16:28:40;3.17;;;1.40;;
2934;SDS011;2462;51.456;7.248;2023-04-03T16:31:06;4.57;;;1.57;;
2934;SDS011;2462;51.456;7.248;2023-04-03T16:33:32;6.57;;;1.70;;
2934;SDS011;2462;51.456;7.248;2023-04-03T16:35:58;3.93;;;1.50;;
2934;SDS011;2462;51.456;7.248;2023-04-03T16:38:24;3.33;;;2.10;;
2934;SDS011;2462;51.456;7.248;2023-04-03T16:40:50;9.57;;;2.33;;
2934;SDS011;2462;51.456;7.248;2023-04-03T16:43:17;3.87;;;1.80;;
2934;SDS011;2462;51.456;7.248;2023-04-03T16:45:42;8.97;;;1.40;;
2934;SDS011;2462;51.456;7.248;2023-04-03T16:48:08;8.07;;;1.73;;
2934;SDS011;2462;51.456;7.248;2023-04-03T16:50:34;4.50;;;1.50;;
2934;SDS011;2462;51.456;7.248;2023-04-03T16:52:59;2.13;;;1.48;;
2934;SDS011;2462;51.456;7.248;2023-04-03T16:55:27;3.30;;;1.80;;
2934;SDS011;2462;51.456;7.248;2023-04-03T16:57:53;3.67;;;1.43;;
2934;SDS011;2462;51.456;7.248;2023-04-03T17:00:19;5.70;;;2.03;;